sensor_id;sensor_type;location;lat;lon;timestamp;P1;durP1;ratioP1;P2;durP2;ratioP2
69334;SDS011;56477;52.742;15.242;2022-08-07T00:01:48;4.05;;;2.30;;
69334;SDS011;56477;52.742;15.242;2022-08-07T00:04:13;13.63;;;2.40;;
69334;SDS011;56477;52.742;15.242;2022-08-07T00:06:39;5.97;;;2.17;;
69334;SDS011;56477;52.742;15.242;2022-08-07T00:09:05;7.65;;;2.72;;
69334;SDS011;56477;52.742;15.242;2022-08-07T00:11:31;6.55;;;2.90;;
69334;SDS011;56477;52.742;15.242;2022-08-07T00:13:57;5.47;;;2.20;;
69334;SDS011;56477;52.742;15.242;2022-08-07T00:16:23;6.50;;;2.37;;
69334;SDS011;56477;52.742;15.242;2022-08-07T00:18:49;4.97;;;2.25;;
69334;SDS011;56477;52.742;15.242;2022-08-07T00:21:15;4.95;;;2.05;;
69334;SDS011;56477;52.742;15.242;2022-08-07T00:23:41;6.07;;;2.22;;
69334;SDS011;56477;52.742;15.242;2022-08-07T00:26:08;5.20;;;2.70;;
69334;SDS011;56477;52.742;15.242;2022-08-07T00:28:35;6.50;;;2.30;;
69334;SDS011;56477;52.742;15.242;2022-08-07T00:31:03;5.35;;;2.35;;
69334;SDS011;56477;52.742;15.242;2022-08-07T00:33:32;4.75;;;2.20;;
69334;SDS011;56477;52.742;15.242;2022-08-07T00:35:58;3.83;;;2.30;;
69334;SDS011;56477;52.742;15.242;2022-08-07T00:38:24;5.40;;;2.50;;
69334;SDS011;56477;52.742;15.242;2022-08-07T00:40:50;3.50;;;1.92;;
69334;SDS011;56477;52.742;15.242;2022-08-07T00:43:16;5.93;;;2.00;;
69334;SDS011;56477;52.742;15.242;2022-08-07T00:45:42;3.93;;;2.30;;
69334;SDS011;56477;52.742;15.242;2022-08-07T00:48:09;5.72;;;2.00;;
69334;SDS011;56477;52.742;15.242;2022-08-07T00:50:36;6.28;;;1.90;;
69334;SDS011;56477;52.742;15.242;2022-08-07T00:53:03;4.07;;;2.13;;
69334;SDS011;56477;52.742;15.242;2022-08-07T00:55:29;5.07;;;1.80;;
69334;SDS011;56477;52.742;15.242;2022-08-07T00:57:55;5.43;;;2.30;;
69334;SDS011;56477;52.742;15.242;2022-08-07T01:00:22;5.63;;;2.22;;
69334;SDS011;56477;52.742;15.242;2022-08-07T01:02:48;5.57;;;2.15;;
69334;SDS011;56477;52.742;15.242;2022-08-07T01:05:15;4.32;;;2.28;;
69334;SDS011;56477;52.742;15.242;2022-08-07T01:07:41;4.60;;;2.03;;
69334;SDS011;56477;52.742;15.242;2022-08-07T01:10:07;4.55;;;1.92;;
69334;SDS011;56477;52.742;15.242;2022-08-07T01:12:35;3.63;;;1.90;;
69334;SDS011;56477;52.742;15.242;2022-08-07T01:15:03;3.40;;;1.70;;
69334;SDS011;56477;52.742;15.242;2022-08-07T01:17:29;5.80;;;2.75;;
69334;SDS011;56477;52.742;15.242;2022-08-07T01:20:06;4.40;;;1.83;;
69334;SDS011;56477;52.742;15.242;2022-08-07T01:22:35;5.60;;;2.78;;
69334;SDS011;56477;52.742;15.242;2022-08-07T01:25:03;5.05;;;1.98;;
69334;SDS011;56477;52.742;15.242;2022-08-07T01:27:29;5.38;;;2.20;;
69334;SDS011;56477;52.742;15.242;2022-08-07T01:29:55;5.43;;;2.30;;
69334;SDS011;56477;52.742;15.242;2022-08-07T01:32:21;6.07;;;2.00;;
69334;SDS011;56477;52.742;15.242;2022-08-07T01:34:48;6.40;;;2.28;;
69334;SDS011;56477;52.742;15.242;2022-08-07T01:37:15;7.35;;;2.40;;
69334;SDS011;56477;52.742;15.242;2022-08-07T01:39:43;8.05;;;2.85;;
69334;SDS011;56477;52.742;15.242;2022-08-07T01:42:09;5.23;;;2.37;;
69334;SDS011;56477;52.742;15.242;2022-08-07T01:44:36;6.50;;;2.45;;
69334;SDS011;56477;52.742;15.242;2022-08-07T01:47:02;8.82;;;2.55;;
69334;SDS011;56477;52.742;15.242;2022-08-07T01:49:28;4.70;;;2.17;;
69334;SDS011;56477;52.742;15.242;2022-08-07T01:51:54;5.80;;;2.42;;
69334;SDS011;56477;52.742;15.242;2022-08-07T01:54:22;5.97;;;2.90;;
69334;SDS011;56477;52.742;15.242;2022-08-07T01:56:52;5.10;;;2.22;;
69334;SDS011;56477;52.742;15.242;2022-08-07T01:59:28;6.30;;;2.85;;
69334;SDS011;56477;52.742;15.242;2022-08-07T02:02:05;6.75;;;2.25;;
69334;SDS011;56477;52.742;15.242;2022-08-07T02:04:37;5.18;;;2.38;;
69334;SDS011;56477;52.742;15.242;2022-08-07T02:07:07;5.43;;;2.73;;
69334;SDS011;56477;52.742;15.242;2022-08-07T02:09:36;7.63;;;2.55;;
69334;SDS011;56477;52.742;15.242;2022-08-07T02:12:05;5.75;;;2.60;;
69334;SDS011;56477;52.742;15.242;2022-08-07T02:14:47;6.22;;;2.50;;
69334;SDS011;56477;52.742;15.242;2022-08-07T02:17:15;4.28;;;2.30;;
69334;SDS011;56477;52.742;15.242;2022-08-07T02:19:42;5.83;;;2.60;;
69334;SDS011;56477;52.742;15.242;2022-08-07T02:22:12;7.22;;;2.60;;
69334;SDS011;56477;52.742;15.242;2022-08-07T02:24:43;5.60;;;2.25;;
69334;SDS011;56477;52.742;15.242;2022-08-07T02:27:11;5.68;;;2.15;;
69334;SDS011;56477;52.742;15.242;2022-08-07T02:29:40;5.30;;;2.50;;
69334;SDS011;56477;52.742;15.242;2022-08-07T02:32:07;5.73;;;2.53;;
69334;SDS011;56477;52.742;15.242;2022-08-07T02:34:35;5.07;;;2.47;;
69334;SDS011;56477;52.742;15.242;2022-08-07T02:37:03;4.57;;;2.05;;
69334;SDS011;56477;52.742;15.242;2022-08-07T02:39:33;4.88;;;2.80;;
69334;SDS011;56477;52.742;15.242;2022-08-07T02:42:01;6.15;;;2.40;;
69334;SDS011;56477;52.742;15.242;2022-08-07T02:44:28;5.73;;;2.70;;
69334;SDS011;56477;52.742;15.242;2022-08-07T02:46:55;5.80;;;2.42;;
69334;SDS011;56477;52.742;15.242;2022-08-07T02:49:23;6.55;;;2.85;;
69334;SDS011;56477;52.742;15.242;2022-08-07T02:51:49;4.30;;;2.40;;
69334;SDS011;56477;52.742;15.242;2022-08-07T02:54:17;6.50;;;2.65;;
69334;SDS011;56477;52.742;15.242;2022-08-07T02:56:46;6.10;;;2.53;;
69334;SDS011;56477;52.742;15.242;2022-08-07T02:59:14;8.48;;;2.88;;
69334;SDS011;56477;52.742;15.242;2022-08-07T03:01:44;6.90;;;3.00;;
69334;SDS011;56477;52.742;15.242;2022-08-07T03:04:11;4.78;;;2.58;;
69334;SDS011;56477;52.742;15.242;2022-08-07T03:06:39;5.00;;;2.60;;
69334;SDS011;56477;52.742;15.242;2022-08-07T03:09:06;5.17;;;2.70;;
69334;SDS011;56477;52.742;15.242;2022-08-07T03:11:34;5.22;;;2.70;;
69334;SDS011;56477;52.742;15.242;2022-08-07T03:14:01;6.28;;;2.70;;
69334;SDS011;56477;52.742;15.242;2022-08-07T03:16:29;6.25;;;2.75;;
69334;SDS011;56477;52.742;15.242;2022-08-07T03:18:56;5.38;;;2.78;;
69334;SDS011;56477;52.742;15.242;2022-08-07T03:21:23;4.80;;;2.40;;
69334;SDS011;56477;52.742;15.242;2022-08-07T03:23:50;5.60;;;2.60;;
69334;SDS011;56477;52.742;15.242;2022-08-07T03:26:21;4.40;;;2.58;;
69334;SDS011;56477;52.742;15.242;2022-08-07T03:28:50;4.93;;;2.55;;
69334;SDS011;56477;52.742;15.242;2022-08-07T03:31:18;4.90;;;2.60;;
69334;SDS011;56477;52.742;15.242;2022-08-07T03:33:47;7.47;;;3.23;;
69334;SDS011;56477;52.742;15.242;2022-08-07T03:36:17;5.15;;;2.60;;
69334;SDS011;56477;52.742;15.242;2022-08-07T03:38:45;4.50;;;2.85;;
69334;SDS011;56477;52.742;15.242;2022-08-07T03:41:13;4.90;;;2.75;;
69334;SDS011;56477;52.742;15.242;2022-08-07T03:43:40;6.53;;;3.40;;
69334;SDS011;56477;52.742;15.242;2022-08-07T03:46:07;7.13;;;3.00;;
69334;SDS011;56477;52.742;15.242;2022-08-07T03:48:34;6.15;;;3.17;;
69334;SDS011;56477;52.742;15.242;2022-08-07T03:51:01;5.82;;;2.92;;
69334;SDS011;56477;52.742;15.242;2022-08-07T03:53:28;7.05;;;2.63;;
69334;SDS011;56477;52.742;15.242;2022-08-07T03:55:55;12.00;;;3.78;;
69334;SDS011;56477;52.742;15.242;2022-08-07T03:58:23;7.20;;;2.90;;
69334;SDS011;56477;52.742;15.242;2022-08-07T04:00:51;5.10;;;2.88;;
69334;SDS011;56477;52.742;15.242;2022-08-07T04:03:20;7.65;;;3.40;;
69334;SDS011;56477;52.742;15.242;2022-08-07T04:05:47;6.40;;;2.97;;
69334;SDS011;56477;52.742;15.242;2022-08-07T04:08:13;8.63;;;2.95;;
69334;SDS011;56477;52.742;15.242;2022-08-07T04:10:40;8.03;;;3.00;;
69334;SDS011;56477;52.742;15.242;2022-08-07T04:13:07;8.80;;;3.22;;
69334;SDS011;56477;52.742;15.242;2022-08-07T04:15:36;7.28;;;3.17;;
69334;SDS011;56477;52.742;15.242;2022-08-07T04:18:03;5.00;;;2.97;;
69334;SDS011;56477;52.742;15.242;2022-08-07T04:20:29;7.50;;;3.17;;
69334;SDS011;56477;52.742;15.242;2022-08-07T04:22:55;7.27;;;3.17;;
69334;SDS011;56477;52.742;15.242;2022-08-07T04:25:23;6.03;;;3.00;;
69334;SDS011;56477;52.742;15.242;2022-08-07T04:27:50;6.50;;;3.60;;
69334;SDS011;56477;52.742;15.242;2022-08-07T04:30:16;5.50;;;3.50;;
69334;SDS011;56477;52.742;15.242;2022-08-07T04:32:43;9.25;;;3.83;;
69334;SDS011;56477;52.742;15.242;2022-08-07T04:35:09;6.67;;;3.30;;
69334;SDS011;56477;52.742;15.242;2022-08-07T04:37:35;5.07;;;3.10;;
69334;SDS011;56477;52.742;15.242;2022-08-07T04:40:03;5.85;;;3.38;;
69334;SDS011;56477;52.742;15.242;2022-08-07T04:42:30;11.30;;;3.63;;
69334;SDS011;56477;52.742;15.242;2022-08-07T04:44:59;7.93;;;3.88;;
69334;SDS011;56477;52.742;15.242;2022-08-07T04:50:19;11.98;;;5.30;;
69334;SDS011;56477;52.742;15.242;2022-08-07T04:56:13;9.63;;;5.07;;
69334;SDS011;56477;52.742;15.242;2022-08-07T04:58:49;9.65;;;5.60;;
69334;SDS011;56477;52.742;15.242;2022-08-07T05:04:30;8.88;;;5.10;;
69334;SDS011;56477;52.742;15.242;2022-08-07T05:07:08;12.27;;;5.75;;
69334;SDS011;56477;52.742;15.242;2022-08-07T05:09:41;8.85;;;5.20;;
69334;SDS011;56477;52.742;15.242;2022-08-07T05:12:16;11.85;;;4.47;;
69334;SDS011;56477;52.742;15.242;2022-08-07T05:14:48;10.10;;;4.33;;
69334;SDS011;56477;52.742;15.242;2022-08-07T05:17:18;10.82;;;5.57;;
69334;SDS011;56477;52.742;15.242;2022-08-07T05:19:48;8.82;;;5.18;;
69334;SDS011;56477;52.742;15.242;2022-08-07T05:22:17;9.73;;;4.95;;
69334;SDS011;56477;52.742;15.242;2022-08-07T05:24:46;8.82;;;4.55;;
69334;SDS011;56477;52.742;15.242;2022-08-07T05:27:15;10.97;;;5.30;;
69334;SDS011;56477;52.742;15.242;2022-08-07T05:29:44;8.95;;;4.53;;
69334;SDS011;56477;52.742;15.242;2022-08-07T05:32:12;9.63;;;4.63;;
69334;SDS011;56477;52.742;15.242;2022-08-07T05:34:39;9.18;;;5.03;;
69334;SDS011;56477;52.742;15.242;2022-08-07T05:37:07;7.55;;;4.55;;
69334;SDS011;56477;52.742;15.242;2022-08-07T05:39:34;8.30;;;4.20;;
69334;SDS011;56477;52.742;15.242;2022-08-07T05:42:01;7.60;;;3.85;;
69334;SDS011;56477;52.742;15.242;2022-08-07T05:44:29;9.00;;;3.70;;
69334;SDS011;56477;52.742;15.242;2022-08-07T05:46:57;7.82;;;3.47;;
69334;SDS011;56477;52.742;15.242;2022-08-07T05:49:25;6.25;;;3.30;;
69334;SDS011;56477;52.742;15.242;2022-08-07T05:51:51;8.10;;;3.90;;
69334;SDS011;56477;52.742;15.242;2022-08-07T05:54:18;8.30;;;4.13;;
69334;SDS011;56477;52.742;15.242;2022-08-07T05:56:44;9.63;;;3.85;;
69334;SDS011;56477;52.742;15.242;2022-08-07T05:59:13;7.97;;;3.83;;
69334;SDS011;56477;52.742;15.242;2022-08-07T06:01:41;8.27;;;4.47;;
69334;SDS011;56477;52.742;15.242;2022-08-07T06:04:08;6.63;;;3.90;;
69334;SDS011;56477;52.742;15.242;2022-08-07T06:06:37;6.18;;;3.90;;
69334;SDS011;56477;52.742;15.242;2022-08-07T06:09:03;5.38;;;2.83;;
69334;SDS011;56477;52.742;15.242;2022-08-07T06:11:29;5.72;;;3.17;;
69334;SDS011;56477;52.742;15.242;2022-08-07T06:13:57;5.67;;;2.90;;
69334;SDS011;56477;52.742;15.242;2022-08-07T06:16:23;4.70;;;2.47;;
69334;SDS011;56477;52.742;15.242;2022-08-07T06:18:52;6.20;;;2.80;;
69334;SDS011;56477;52.742;15.242;2022-08-07T06:21:19;5.35;;;3.10;;
69334;SDS011;56477;52.742;15.242;2022-08-07T06:23:45;5.72;;;2.75;;
69334;SDS011;56477;52.742;15.242;2022-08-07T06:26:14;5.00;;;2.70;;
69334;SDS011;56477;52.742;15.242;2022-08-07T06:28:47;6.95;;;2.83;;
69334;SDS011;56477;52.742;15.242;2022-08-07T06:31:21;4.68;;;2.72;;
69334;SDS011;56477;52.742;15.242;2022-08-07T06:33:47;6.30;;;2.45;;
69334;SDS011;56477;52.742;15.242;2022-08-07T06:36:13;4.60;;;2.30;;
69334;SDS011;56477;52.742;15.242;2022-08-07T06:38:39;4.07;;;2.22;;
69334;SDS011;56477;52.742;15.242;2022-08-07T06:41:11;4.97;;;2.50;;
69334;SDS011;56477;52.742;15.242;2022-08-07T06:43:42;6.65;;;2.70;;
69334;SDS011;56477;52.742;15.242;2022-08-07T06:46:10;5.78;;;3.03;;
69334;SDS011;56477;52.742;15.242;2022-08-07T06:48:37;7.07;;;2.60;;
69334;SDS011;56477;52.742;15.242;2022-08-07T06:51:04;4.13;;;1.80;;
69334;SDS011;56477;52.742;15.242;2022-08-07T06:53:33;4.15;;;1.60;;
69334;SDS011;56477;52.742;15.242;2022-08-07T06:56:02;6.20;;;2.17;;
69334;SDS011;56477;52.742;15.242;2022-08-07T06:58:35;4.37;;;1.73;;
69334;SDS011;56477;52.742;15.242;2022-08-07T07:01:07;2.58;;;1.40;;
69334;SDS011;56477;52.742;15.242;2022-08-07T07:03:36;4.00;;;1.63;;
69334;SDS011;56477;52.742;15.242;2022-08-07T07:06:04;5.90;;;1.73;;
69334;SDS011;56477;52.742;15.242;2022-08-07T07:08:31;3.83;;;2.10;;
69334;SDS011;56477;52.742;15.242;2022-08-07T07:10:57;3.33;;;1.87;;
69334;SDS011;56477;52.742;15.242;2022-08-07T07:13:37;3.70;;;1.73;;
69334;SDS011;56477;52.742;15.242;2022-08-07T07:16:10;3.50;;;2.00;;
69334;SDS011;56477;52.742;15.242;2022-08-07T07:18:46;3.20;;;1.50;;
69334;SDS011;56477;52.742;15.242;2022-08-07T07:23:51;3.70;;;1.53;;
69334;SDS011;56477;52.742;15.242;2022-08-07T07:26:19;2.53;;;1.60;;
69334;SDS011;56477;52.742;15.242;2022-08-07T07:28:48;3.30;;;1.70;;
69334;SDS011;56477;52.742;15.242;2022-08-07T07:33:57;2.30;;;1.65;;
69334;SDS011;56477;52.742;15.242;2022-08-07T07:36:27;4.82;;;2.28;;
69334;SDS011;56477;52.742;15.242;2022-08-07T07:38:55;5.03;;;1.92;;
69334;SDS011;56477;52.742;15.242;2022-08-07T07:41:22;4.10;;;2.28;;
69334;SDS011;56477;52.742;15.242;2022-08-07T07:43:50;3.53;;;1.90;;
69334;SDS011;56477;52.742;15.242;2022-08-07T07:46:18;2.57;;;1.70;;
69334;SDS011;56477;52.742;15.242;2022-08-07T07:48:47;3.78;;;1.77;;
69334;SDS011;56477;52.742;15.242;2022-08-07T07:51:14;4.50;;;2.55;;
69334;SDS011;56477;52.742;15.242;2022-08-07T07:53:44;3.70;;;1.95;;
69334;SDS011;56477;52.742;15.242;2022-08-07T07:56:11;3.70;;;2.10;;
69334;SDS011;56477;52.742;15.242;2022-08-07T07:58:38;6.18;;;2.40;;
69334;SDS011;56477;52.742;15.242;2022-08-07T08:01:06;4.95;;;1.98;;
69334;SDS011;56477;52.742;15.242;2022-08-07T08:03:34;3.20;;;1.73;;
69334;SDS011;56477;52.742;15.242;2022-08-07T08:06:02;3.67;;;1.90;;
69334;SDS011;56477;52.742;15.242;2022-08-07T08:08:30;5.60;;;1.90;;
69334;SDS011;56477;52.742;15.242;2022-08-07T08:10:58;5.63;;;2.15;;
69334;SDS011;56477;52.742;15.242;2022-08-07T08:13:25;5.45;;;2.30;;
69334;SDS011;56477;52.742;15.242;2022-08-07T08:15:53;4.30;;;2.00;;
69334;SDS011;56477;52.742;15.242;2022-08-07T08:18:21;3.75;;;2.13;;
69334;SDS011;56477;52.742;15.242;2022-08-07T08:20:49;4.97;;;2.42;;
69334;SDS011;56477;52.742;15.242;2022-08-07T08:23:16;3.97;;;2.15;;
69334;SDS011;56477;52.742;15.242;2022-08-07T08:26:03;3.50;;;2.60;;
69334;SDS011;56477;52.742;15.242;2022-08-07T08:28:50;5.50;;;2.47;;
69334;SDS011;56477;52.742;15.242;2022-08-07T08:31:51;5.10;;;2.13;;
69334;SDS011;56477;52.742;15.242;2022-08-07T08:34:10;6.82;;;2.10;;
69334;SDS011;56477;52.742;15.242;2022-08-07T08:36:38;4.00;;;2.28;;
69334;SDS011;56477;52.742;15.242;2022-08-07T08:39:07;3.22;;;2.25;;
69334;SDS011;56477;52.742;15.242;2022-08-07T08:44:42;3.60;;;2.65;;
69334;SDS011;56477;52.742;15.242;2022-08-07T08:47:16;3.50;;;1.98;;
69334;SDS011;56477;52.742;15.242;2022-08-07T08:49:55;3.92;;;2.30;;
69334;SDS011;56477;52.742;15.242;2022-08-07T08:52:30;2.67;;;1.63;;
69334;SDS011;56477;52.742;15.242;2022-08-07T08:55:13;3.00;;;1.90;;
69334;SDS011;56477;52.742;15.242;2022-08-07T08:57:50;4.18;;;1.90;;
69334;SDS011;56477;52.742;15.242;2022-08-07T09:00:25;3.88;;;2.10;;
69334;SDS011;56477;52.742;15.242;2022-08-07T09:02:59;3.75;;;2.35;;
69334;SDS011;56477;52.742;15.242;2022-08-07T09:08:18;4.97;;;2.67;;
69334;SDS011;56477;52.742;15.242;2022-08-07T09:14:04;4.00;;;2.47;;
69334;SDS011;56477;52.742;15.242;2022-08-07T09:19:19;5.00;;;2.20;;
69334;SDS011;56477;52.742;15.242;2022-08-07T09:24:33;5.78;;;2.50;;
69334;SDS011;56477;52.742;15.242;2022-08-07T09:30:05;3.40;;;2.17;;
69334;SDS011;56477;52.742;15.242;2022-08-07T09:32:54;4.47;;;2.63;;
69334;SDS011;56477;52.742;15.242;2022-08-07T09:49:38;5.83;;;2.83;;
69334;SDS011;56477;52.742;15.242;2022-08-07T09:52:47;4.87;;;2.40;;
69334;SDS011;56477;52.742;15.242;2022-08-07T09:56:02;3.58;;;2.30;;
69334;SDS011;56477;52.742;15.242;2022-08-07T09:58:20;5.38;;;2.78;;
69334;SDS011;56477;52.742;15.242;2022-08-07T10:18:13;5.25;;;3.38;;
69334;SDS011;56477;52.742;15.242;2022-08-07T10:35:29;4.80;;;3.13;;
69334;SDS011;56477;52.742;15.242;2022-08-07T10:46:50;3.00;;;1.77;;
69334;SDS011;56477;52.742;15.242;2022-08-07T10:52:05;3.08;;;1.70;;
69334;SDS011;56477;52.742;15.242;2022-08-07T10:54:43;4.00;;;2.28;;
69334;SDS011;56477;52.742;15.242;2022-08-07T10:57:26;4.53;;;2.50;;
69334;SDS011;56477;52.742;15.242;2022-08-07T11:00:13;5.22;;;2.55;;
69334;SDS011;56477;52.742;15.242;2022-08-07T11:09:03;2.78;;;1.80;;
69334;SDS011;56477;52.742;15.242;2022-08-07T11:14:03;3.78;;;2.05;;
69334;SDS011;56477;52.742;15.242;2022-08-07T11:30:16;4.10;;;2.10;;
69334;SDS011;56477;52.742;15.242;2022-08-07T11:33:01;3.95;;;2.35;;
69334;SDS011;56477;52.742;15.242;2022-08-07T11:35:40;11.40;;;6.32;;
69334;SDS011;56477;52.742;15.242;2022-08-07T11:39:05;7.35;;;3.38;;
69334;SDS011;56477;52.742;15.242;2022-08-07T11:41:28;6.85;;;3.53;;
69334;SDS011;56477;52.742;15.242;2022-08-07T11:44:13;3.92;;;1.80;;
69334;SDS011;56477;52.742;15.242;2022-08-07T11:47:06;4.50;;;2.13;;
69334;SDS011;56477;52.742;15.242;2022-08-07T12:01:08;3.53;;;2.10;;
69334;SDS011;56477;52.742;15.242;2022-08-07T12:06:44;4.30;;;2.80;;
69334;SDS011;56477;52.742;15.242;2022-08-07T12:12:22;3.85;;;1.92;;
69334;SDS011;56477;52.742;15.242;2022-08-07T12:17:48;4.75;;;2.40;;
69334;SDS011;56477;52.742;15.242;2022-08-07T12:23:45;3.30;;;2.00;;
69334;SDS011;56477;52.742;15.242;2022-08-07T12:26:49;3.83;;;2.53;;
69334;SDS011;56477;52.742;15.242;2022-08-07T12:30:08;2.50;;;2.08;;
69334;SDS011;56477;52.742;15.242;2022-08-07T12:32:46;2.97;;;1.73;;
69334;SDS011;56477;52.742;15.242;2022-08-07T12:35:14;4.22;;;1.80;;
69334;SDS011;56477;52.742;15.242;2022-08-07T12:37:45;2.60;;;1.30;;
69334;SDS011;56477;52.742;15.242;2022-08-07T12:40:24;5.95;;;2.38;;
69334;SDS011;56477;52.742;15.242;2022-08-07T12:42:53;4.95;;;2.58;;
69334;SDS011;56477;52.742;15.242;2022-08-07T12:45:23;3.22;;;2.30;;
69334;SDS011;56477;52.742;15.242;2022-08-07T12:47:57;2.60;;;1.80;;
69334;SDS011;56477;52.742;15.242;2022-08-07T12:50:35;4.60;;;2.77;;
69334;SDS011;56477;52.742;15.242;2022-08-07T12:56:03;2.55;;;1.80;;
69334;SDS011;56477;52.742;15.242;2022-08-07T12:58:36;4.43;;;2.50;;
69334;SDS011;56477;52.742;15.242;2022-08-07T13:01:06;2.70;;;2.00;;
69334;SDS011;56477;52.742;15.242;2022-08-07T13:03:49;2.72;;;1.73;;
69334;SDS011;56477;52.742;15.242;2022-08-07T13:12:21;2.65;;;1.52;;
69334;SDS011;56477;52.742;15.242;2022-08-07T13:21:40;3.03;;;1.75;;
69334;SDS011;56477;52.742;15.242;2022-08-07T13:23:47;4.65;;;2.35;;
69334;SDS011;56477;52.742;15.242;2022-08-07T13:26:21;5.65;;;2.78;;
69334;SDS011;56477;52.742;15.242;2022-08-07T13:28:58;5.07;;;2.22;;
69334;SDS011;56477;52.742;15.242;2022-08-07T13:37:07;2.60;;;1.40;;
69334;SDS011;56477;52.742;15.242;2022-08-07T13:39:44;4.00;;;2.03;;
69334;SDS011;56477;52.742;15.242;2022-08-07T13:42:15;3.63;;;1.40;;
69334;SDS011;56477;52.742;15.242;2022-08-07T13:44:42;3.88;;;1.67;;
69334;SDS011;56477;52.742;15.242;2022-08-07T13:47:11;3.08;;;1.30;;
69334;SDS011;56477;52.742;15.242;2022-08-07T13:49:41;3.22;;;1.45;;
69334;SDS011;56477;52.742;15.242;2022-08-07T13:52:10;3.35;;;1.02;;
69334;SDS011;56477;52.742;15.242;2022-08-07T13:54:37;3.93;;;1.50;;
69334;SDS011;56477;52.742;15.242;2022-08-07T13:57:06;2.47;;;1.40;;
69334;SDS011;56477;52.742;15.242;2022-08-07T13:59:42;3.10;;;1.48;;
69334;SDS011;56477;52.742;15.242;2022-08-07T14:02:18;3.35;;;1.95;;
69334;SDS011;56477;52.742;15.242;2022-08-07T14:04:49;3.97;;;1.67;;
69334;SDS011;56477;52.742;15.242;2022-08-07T14:07:19;2.83;;;1.38;;
69334;SDS011;56477;52.742;15.242;2022-08-07T14:09:46;2.65;;;1.52;;
69334;SDS011;56477;52.742;15.242;2022-08-07T14:12:21;3.67;;;1.83;;
69334;SDS011;56477;52.742;15.242;2022-08-07T14:15:34;4.03;;;2.47;;
69334;SDS011;56477;52.742;15.242;2022-08-07T14:18:17;2.67;;;1.73;;
69334;SDS011;56477;52.742;15.242;2022-08-07T14:20:46;7.57;;;4.93;;
69334;SDS011;56477;52.742;15.242;2022-08-07T14:23:16;3.88;;;1.52;;
69334;SDS011;56477;52.742;15.242;2022-08-07T14:25:45;3.80;;;2.50;;
69334;SDS011;56477;52.742;15.242;2022-08-07T14:28:19;2.75;;;1.90;;
69334;SDS011;56477;52.742;15.242;2022-08-07T14:30:46;3.42;;;2.53;;
69334;SDS011;56477;52.742;15.242;2022-08-07T14:33:15;2.30;;;1.60;;
69334;SDS011;56477;52.742;15.242;2022-08-07T14:35:41;3.25;;;2.33;;
69334;SDS011;56477;52.742;15.242;2022-08-07T14:38:08;4.03;;;1.90;;
69334;SDS011;56477;52.742;15.242;2022-08-07T14:40:37;2.70;;;2.07;;
69334;SDS011;56477;52.742;15.242;2022-08-07T14:43:06;3.17;;;1.90;;
69334;SDS011;56477;52.742;15.242;2022-08-07T14:45:44;3.75;;;2.58;;
69334;SDS011;56477;52.742;15.242;2022-08-07T14:48:13;2.88;;;2.30;;
69334;SDS011;56477;52.742;15.242;2022-08-07T14:50:48;3.92;;;1.73;;
69334;SDS011;56477;52.742;15.242;2022-08-07T14:53:18;4.55;;;2.38;;
69334;SDS011;56477;52.742;15.242;2022-08-07T14:55:46;3.08;;;2.03;;
69334;SDS011;56477;52.742;15.242;2022-08-07T14:58:13;3.28;;;2.45;;
69334;SDS011;56477;52.742;15.242;2022-08-07T15:00:42;3.83;;;1.98;;
69334;SDS011;56477;52.742;15.242;2022-08-07T15:03:13;3.80;;;1.97;;
69334;SDS011;56477;52.742;15.242;2022-08-07T15:05:40;2.60;;;1.80;;
69334;SDS011;56477;52.742;15.242;2022-08-07T15:08:08;4.47;;;1.70;;
69334;SDS011;56477;52.742;15.242;2022-08-07T15:10:39;2.85;;;1.58;;
69334;SDS011;56477;52.742;15.242;2022-08-07T15:13:09;2.80;;;1.33;;
69334;SDS011;56477;52.742;15.242;2022-08-07T15:15:42;4.80;;;1.67;;
69334;SDS011;56477;52.742;15.242;2022-08-07T15:18:14;4.53;;;1.58;;
69334;SDS011;56477;52.742;15.242;2022-08-07T15:20:44;4.10;;;1.50;;
69334;SDS011;56477;52.742;15.242;2022-08-07T15:23:13;2.40;;;1.48;;
69334;SDS011;56477;52.742;15.242;2022-08-07T15:25:56;5.00;;;2.10;;
69334;SDS011;56477;52.742;15.242;2022-08-07T15:28:24;4.07;;;1.77;;
69334;SDS011;56477;52.742;15.242;2022-08-07T15:30:55;3.33;;;1.50;;
69334;SDS011;56477;52.742;15.242;2022-08-07T15:33:26;3.35;;;1.35;;
69334;SDS011;56477;52.742;15.242;2022-08-07T15:35:53;2.72;;;1.70;;
69334;SDS011;56477;52.742;15.242;2022-08-07T15:38:27;4.22;;;1.80;;
69334;SDS011;56477;52.742;15.242;2022-08-07T15:40:59;3.08;;;1.70;;
69334;SDS011;56477;52.742;15.242;2022-08-07T15:43:42;2.85;;;1.90;;
69334;SDS011;56477;52.742;15.242;2022-08-07T15:46:22;3.45;;;1.67;;
69334;SDS011;56477;52.742;15.242;2022-08-07T15:48:51;2.80;;;1.90;;
69334;SDS011;56477;52.742;15.242;2022-08-07T15:51:19;3.15;;;1.55;;
69334;SDS011;56477;52.742;15.242;2022-08-07T15:53:52;3.33;;;1.48;;
69334;SDS011;56477;52.742;15.242;2022-08-07T15:56:23;3.47;;;1.50;;
69334;SDS011;56477;52.742;15.242;2022-08-07T15:58:57;3.03;;;1.70;;
69334;SDS011;56477;52.742;15.242;2022-08-07T16:01:26;2.70;;;1.60;;
69334;SDS011;56477;52.742;15.242;2022-08-07T16:03:57;7.43;;;1.83;;
69334;SDS011;56477;52.742;15.242;2022-08-07T16:06:28;3.00;;;1.60;;
69334;SDS011;56477;52.742;15.242;2022-08-07T16:08:58;3.00;;;1.47;;
69334;SDS011;56477;52.742;15.242;2022-08-07T16:11:32;5.55;;;1.80;;
69334;SDS011;56477;52.742;15.242;2022-08-07T16:14:13;3.95;;;1.77;;
69334;SDS011;56477;52.742;15.242;2022-08-07T16:19:52;4.22;;;1.60;;
69334;SDS011;56477;52.742;15.242;2022-08-07T16:27:48;3.83;;;1.40;;
69334;SDS011;56477;52.742;15.242;2022-08-07T16:30:22;2.47;;;1.50;;
69334;SDS011;56477;52.742;15.242;2022-08-07T16:33:02;2.27;;;1.33;;
69334;SDS011;56477;52.742;15.242;2022-08-07T16:35:33;3.03;;;1.48;;
69334;SDS011;56477;52.742;15.242;2022-08-07T16:43:54;8.40;;;1.70;;
69334;SDS011;56477;52.742;15.242;2022-08-07T16:46:58;2.47;;;1.45;;
69334;SDS011;56477;52.742;15.242;2022-08-07T16:52:07;2.63;;;1.40;;
69334;SDS011;56477;52.742;15.242;2022-08-07T17:00:18;2.40;;;1.48;;
69334;SDS011;56477;52.742;15.242;2022-08-07T17:08:33;2.40;;;1.53;;
69334;SDS011;56477;52.742;15.242;2022-08-07T17:11:00;6.13;;;1.75;;
69334;SDS011;56477;52.742;15.242;2022-08-07T17:13:58;2.65;;;1.45;;
69334;SDS011;56477;52.742;15.242;2022-08-07T17:17:01;4.63;;;2.00;;
69334;SDS011;56477;52.742;15.242;2022-08-07T17:19:33;4.07;;;1.45;;
69334;SDS011;56477;52.742;15.242;2022-08-07T17:22:15;4.03;;;2.17;;
69334;SDS011;56477;52.742;15.242;2022-08-07T17:24:48;6.03;;;2.07;;
69334;SDS011;56477;52.742;15.242;2022-08-07T17:30:14;6.07;;;1.90;;
69334;SDS011;56477;52.742;15.242;2022-08-07T17:35:20;3.58;;;1.48;;
69334;SDS011;56477;52.742;15.242;2022-08-07T17:38:00;4.32;;;1.80;;
69334;SDS011;56477;52.742;15.242;2022-08-07T17:43:02;4.03;;;1.52;;
69334;SDS011;56477;52.742;15.242;2022-08-07T17:45:38;8.48;;;1.98;;
69334;SDS011;56477;52.742;15.242;2022-08-07T17:50:50;3.58;;;1.73;;
69334;SDS011;56477;52.742;15.242;2022-08-07T17:59:06;5.13;;;1.55;;
69334;SDS011;56477;52.742;15.242;2022-08-07T18:04:33;3.10;;;1.40;;
69334;SDS011;56477;52.742;15.242;2022-08-07T18:07:43;3.00;;;1.52;;
69334;SDS011;56477;52.742;15.242;2022-08-07T18:13:13;4.80;;;1.57;;
69334;SDS011;56477;52.742;15.242;2022-08-07T18:18:35;7.55;;;2.42;;
69334;SDS011;56477;52.742;15.242;2022-08-07T18:21:15;4.60;;;2.03;;
69334;SDS011;56477;52.742;15.242;2022-08-07T18:43:10;4.60;;;2.07;;
69334;SDS011;56477;52.742;15.242;2022-08-07T18:45:47;4.60;;;1.60;;
69334;SDS011;56477;52.742;15.242;2022-08-07T18:51:19;4.88;;;1.73;;